createdAt,value
2024-03-22T00:01:59.917Z,5.70
2024-03-22T00:04:30.898Z,6.40
2024-03-22T00:07:01.702Z,6.70
2024-03-22T00:09:32.966Z,5.50
2024-03-22T00:12:04.886Z,6.70
2024-03-22T00:14:36.938Z,8.00
2024-03-22T00:17:08.015Z,8.10
2024-03-22T00:19:39.295Z,6.70
2024-03-22T00:22:10.143Z,7.30
2024-03-22T00:24:41.527Z,7.40
2024-03-22T00:27:13.511Z,7.80
2024-03-22T00:29:45.134Z,8.70
2024-03-22T00:32:18.343Z,8.60
2024-03-22T00:34:49.166Z,8.80
2024-03-22T00:37:19.828Z,7.60
2024-03-22T00:39:51.141Z,7.10
2024-03-22T00:42:21.913Z,7.70
2024-03-22T00:44:52.675Z,8.50
2024-03-22T00:47:23.310Z,8.40
2024-03-22T00:49:54.276Z,8.80
2024-03-22T00:52:25.983Z,8.00
2024-03-22T00:54:56.907Z,8.10
2024-03-22T00:57:27.626Z,8.80
2024-03-22T00:59:58.492Z,8.60
2024-03-22T01:02:29.303Z,8.30
2024-03-22T01:05:00.137Z,10.60
2024-03-22T01:07:31.196Z,8.90
2024-03-22T01:10:02.347Z,9.80
2024-03-22T01:12:33.274Z,9.80
2024-03-22T01:15:04.783Z,10.00
2024-03-22T01:17:35.693Z,10.30
2024-03-22T01:20:07.969Z,9.50
2024-03-22T01:22:39.219Z,8.20
2024-03-22T01:25:11.473Z,9.80
2024-03-22T01:27:42.292Z,9.50
2024-03-22T01:30:14.457Z,9.40
2024-03-22T01:32:45.174Z,7.80
2024-03-22T01:35:16.415Z,9.90
2024-03-22T01:37:47.189Z,10.60
2024-03-22T01:40:19.085Z,8.90
2024-03-22T01:42:50.245Z,10.50
2024-03-22T01:45:21.570Z,10.80
2024-03-22T01:47:52.744Z,10.60
2024-03-22T01:50:23.873Z,7.80
2024-03-22T01:52:54.634Z,11.50
2024-03-22T01:55:25.989Z,8.20
2024-03-22T01:57:57.449Z,9.10
2024-03-22T02:00:28.260Z,10.40
2024-03-22T02:02:59.380Z,8.70
2024-03-22T02:05:30.292Z,8.30
2024-03-22T02:08:01.003Z,10.90
2024-03-22T02:10:31.965Z,10.50
2024-03-22T02:13:03.323Z,9.90
2024-03-22T02:15:35.112Z,11.00
2024-03-22T02:18:06.514Z,10.40
2024-03-22T02:20:37.321Z,9.70
2024-03-22T02:23:08.271Z,9.70
2024-03-22T02:25:39.127Z,8.30
2024-03-22T02:28:09.905Z,9.50
2024-03-22T02:30:40.949Z,11.30
2024-03-22T02:33:11.998Z,9.40
2024-03-22T02:35:43.046Z,10.10
2024-03-22T02:38:13.751Z,10.00
2024-03-22T02:40:46.656Z,10.30
2024-03-22T02:43:18.630Z,9.40
2024-03-22T02:45:49.772Z,10.30
2024-03-22T02:48:20.409Z,10.40
2024-03-22T02:50:51.369Z,10.80
2024-03-22T02:53:22.561Z,11.30
2024-03-22T02:55:53.591Z,12.20
2024-03-22T02:58:24.662Z,10.10
2024-03-22T03:00:55.411Z,10.90
2024-03-22T03:03:26.202Z,10.60
2024-03-22T03:05:57.626Z,11.10
2024-03-22T03:08:28.521Z,11.60
2024-03-22T03:10:59.629Z,12.10
2024-03-22T03:13:30.717Z,14.50
2024-03-22T03:16:01.598Z,12.50
2024-03-22T03:18:32.377Z,13.60
2024-03-22T03:21:03.053Z,11.00
2024-03-22T03:23:33.773Z,11.80
2024-03-22T03:26:04.921Z,11.40
2024-03-22T03:28:35.686Z,11.30
2024-03-22T03:31:07.632Z,10.10
2024-03-22T03:33:38.354Z,11.20
2024-03-22T03:36:09.950Z,11.90
2024-03-22T03:38:40.799Z,13.00
2024-03-22T03:41:11.673Z,12.80
2024-03-22T03:43:42.514Z,15.60
2024-03-22T03:46:13.520Z,13.70
2024-03-22T03:48:45.342Z,12.80
2024-03-22T03:51:16.185Z,11.70
2024-03-22T03:53:46.912Z,12.30
2024-03-22T03:56:18.275Z,12.90
2024-03-22T03:58:49.995Z,13.70
2024-03-22T04:01:20.799Z,12.50
2024-03-22T04:03:52.722Z,11.20
2024-03-22T04:06:23.562Z,14.20
2024-03-22T04:08:54.335Z,12.70
2024-03-22T04:11:25.198Z,12.30
2024-03-22T04:13:56.056Z,14.40
2024-03-22T04:16:26.979Z,13.40
2024-03-22T04:18:57.846Z,13.50
2024-03-22T04:21:28.711Z,15.30
2024-03-22T04:23:59.403Z,15.00
2024-03-22T04:26:30.699Z,12.10
2024-03-22T04:29:01.691Z,15.10
2024-03-22T04:31:32.716Z,14.40
2024-03-22T04:34:03.991Z,13.70
2024-03-22T04:36:35.428Z,12.90
2024-03-22T04:39:06.523Z,13.90
2024-03-22T04:41:37.903Z,14.70
2024-03-22T04:44:09.223Z,14.50
2024-03-22T04:46:43.076Z,14.80
2024-03-22T04:49:14.390Z,16.30
2024-03-22T04:51:45.385Z,17.30
2024-03-22T04:54:16.314Z,15.50
2024-03-22T04:56:47.937Z,15.60
2024-03-22T04:59:18.646Z,15.00
2024-03-22T05:01:49.471Z,16.60
2024-03-22T05:04:20.172Z,16.90
2024-03-22T05:06:51.092Z,17.60
2024-03-22T05:09:22.055Z,18.00
2024-03-22T05:11:53.266Z,16.10
2024-03-22T05:14:24.451Z,15.80
2024-03-22T05:16:55.411Z,14.80
2024-03-22T05:19:26.210Z,16.50
2024-03-22T05:21:56.900Z,15.50
2024-03-22T05:24:27.684Z,16.90
2024-03-22T05:26:58.612Z,18.00
2024-03-22T05:29:29.529Z,17.40
2024-03-22T05:32:01.791Z,15.70
2024-03-22T05:34:32.585Z,15.20
2024-03-22T05:37:03.461Z,19.00
2024-03-22T05:39:35.253Z,17.80
2024-03-22T05:42:08.062Z,17.20
2024-03-22T05:44:38.913Z,14.80
2024-03-22T05:47:10.365Z,17.60
2024-03-22T05:49:42.444Z,16.60
2024-03-22T05:52:13.340Z,17.40
2024-03-22T05:54:44.030Z,18.00
2024-03-22T05:57:15.466Z,17.50
2024-03-22T05:59:46.282Z,16.10
2024-03-22T06:02:17.468Z,15.90
2024-03-22T06:04:48.484Z,16.20
2024-03-22T06:07:19.225Z,12.60
2024-03-22T06:09:50.232Z,16.70
2024-03-22T06:12:23.004Z,17.10
2024-03-22T06:14:53.704Z,17.90
2024-03-22T06:17:24.518Z,13.60
2024-03-22T06:19:55.857Z,12.70
2024-03-22T06:22:26.603Z,14.70
2024-03-22T06:24:57.425Z,14.40
2024-03-22T06:27:28.457Z,15.80
2024-03-22T06:29:59.281Z,17.90
2024-03-22T06:32:30.453Z,16.20
2024-03-22T06:35:01.874Z,13.70
2024-03-22T06:37:32.841Z,17.00
2024-03-22T06:40:03.794Z,15.30
2024-03-22T06:42:35.034Z,16.20
2024-03-22T06:45:07.467Z,15.40
2024-03-22T06:47:38.571Z,15.10
2024-03-22T06:50:10.954Z,15.80
2024-03-22T06:52:41.834Z,15.80
2024-03-22T06:55:12.973Z,14.30
2024-03-22T06:57:43.936Z,15.50
2024-03-22T07:00:17.127Z,12.10
2024-03-22T07:02:48.099Z,12.60
2024-03-22T07:05:18.941Z,12.80
2024-03-22T07:07:50.853Z,14.80
2024-03-22T07:10:23.190Z,14.00
2024-03-22T07:12:53.971Z,13.30
2024-03-22T07:15:26.293Z,14.10
2024-03-22T07:17:57.972Z,14.40
2024-03-22T07:20:28.786Z,9.60
2024-03-22T07:22:59.746Z,14.20
2024-03-22T07:25:30.654Z,14.40
2024-03-22T07:28:01.640Z,14.10
2024-03-22T07:30:32.555Z,14.40
2024-03-22T07:33:03.721Z,13.30
2024-03-22T07:35:38.024Z,10.20
2024-03-22T07:38:09.010Z,12.60
2024-03-22T07:40:39.873Z,14.40
2024-03-22T07:43:10.631Z,12.20
2024-03-22T07:45:41.438Z,11.90
2024-03-22T07:48:12.570Z,13.40
2024-03-22T07:50:43.698Z,13.10
2024-03-22T07:53:15.019Z,13.70
2024-03-22T07:55:45.956Z,7.30
2024-03-22T07:58:16.915Z,12.20
2024-03-22T08:00:49.476Z,9.80
2024-03-22T08:03:20.330Z,10.30
2024-03-22T08:05:51.197Z,8.90
2024-03-22T08:08:22.382Z,12.20
2024-03-22T08:10:53.306Z,9.40
2024-03-22T08:13:24.240Z,11.40
2024-03-22T08:15:54.996Z,10.80
2024-03-22T08:18:25.897Z,8.60
2024-03-22T08:20:56.832Z,13.00
2024-03-22T08:23:27.928Z,11.30
2024-03-22T08:25:59.315Z,11.40
2024-03-22T08:28:37.087Z,8.60
2024-03-22T08:31:09.985Z,11.30
2024-03-22T08:33:41.451Z,10.20
2024-03-22T08:36:12.296Z,8.10
2024-03-22T08:38:43.724Z,6.70
2024-03-22T08:41:14.776Z,11.70
2024-03-22T08:43:46.666Z,10.40
2024-03-22T08:46:17.800Z,11.10
2024-03-22T08:48:48.914Z,8.90
2024-03-22T08:51:20.252Z,10.20
2024-03-22T08:53:51.854Z,8.10
2024-03-22T08:56:23.244Z,11.20
2024-03-22T08:58:54.453Z,10.60
2024-03-22T09:01:25.373Z,11.30
2024-03-22T09:03:56.151Z,10.80
2024-03-22T09:06:26.995Z,9.00
2024-03-22T09:08:59.136Z,8.80
2024-03-22T09:11:30.400Z,10.40
2024-03-22T09:14:01.309Z,9.60
2024-03-22T09:16:33.164Z,10.80
2024-03-22T09:19:04.839Z,9.80
2024-03-22T09:21:35.795Z,9.30
2024-03-22T09:24:07.484Z,9.40
2024-03-22T09:26:38.576Z,8.50
2024-03-22T09:29:10.205Z,7.50
2024-03-22T09:31:42.452Z,10.00
2024-03-22T09:34:17.081Z,10.20
2024-03-22T09:36:48.608Z,8.90
2024-03-22T09:39:20.335Z,6.00
2024-03-22T09:41:53.037Z,9.10
2024-03-22T09:44:27.214Z,8.00
2024-03-22T09:46:59.610Z,7.30
2024-03-22T09:49:30.876Z,7.80
2024-03-22T09:52:02.146Z,7.50
2024-03-22T09:54:33.286Z,8.10
2024-03-22T09:57:04.917Z,4.80
2024-03-22T09:59:35.911Z,8.10
2024-03-22T10:02:10.362Z,8.00
2024-03-22T10:04:42.089Z,7.40
2024-03-22T10:07:14.682Z,6.70
2024-03-22T10:09:45.628Z,5.70
2024-03-22T10:12:18.240Z,6.90
2024-03-22T10:14:48.952Z,6.70
2024-03-22T10:17:19.888Z,8.40
2024-03-22T10:19:52.776Z,6.90
2024-03-22T10:22:25.852Z,7.20
2024-03-22T10:25:01.694Z,7.20
2024-03-22T10:27:32.587Z,7.50
2024-03-22T10:30:06.334Z,7.40
2024-03-22T10:32:37.420Z,6.80
2024-03-22T10:35:14.502Z,7.10
2024-03-22T10:37:48.662Z,8.20
2024-03-22T10:40:22.351Z,7.90
2024-03-22T10:42:53.367Z,6.90
2024-03-22T10:45:26.468Z,7.20
2024-03-22T10:47:59.346Z,7.10
2024-03-22T10:50:31.061Z,6.40
2024-03-22T10:53:07.410Z,6.50
2024-03-22T10:55:40.698Z,6.60
2024-03-22T10:58:18.780Z,7.40
2024-03-22T11:00:53.188Z,6.50
2024-03-22T11:03:26.087Z,7.30
2024-03-22T11:05:59.060Z,6.60
2024-03-22T11:08:30.978Z,6.60
2024-03-22T11:11:12.728Z,6.40
2024-03-22T11:13:43.865Z,6.20
2024-03-22T11:16:15.716Z,6.20
2024-03-22T11:18:46.621Z,5.20
2024-03-22T11:21:17.810Z,6.80
2024-03-22T11:23:50.441Z,7.20
2024-03-22T11:26:22.454Z,7.50
2024-03-22T11:28:53.134Z,7.50
2024-03-22T11:31:28.317Z,7.30
2024-03-22T11:33:59.609Z,7.00
2024-03-22T11:36:31.315Z,6.90
2024-03-22T11:39:01.941Z,8.00
2024-03-22T11:41:33.816Z,6.20
2024-03-22T11:44:07.761Z,10.10
2024-03-22T11:46:38.894Z,5.60
2024-03-22T11:49:09.640Z,6.70
2024-03-22T11:51:41.559Z,5.10
2024-03-22T11:54:12.381Z,34.30
2024-03-22T11:56:46.065Z,6.30
2024-03-22T11:59:17.262Z,5.30
2024-03-22T12:01:48.373Z,4.70
2024-03-22T12:04:19.459Z,4.40
2024-03-22T12:06:50.717Z,4.40
2024-03-22T12:09:21.409Z,4.30
2024-03-22T12:11:52.304Z,4.90
2024-03-22T12:14:23.232Z,4.40
2024-03-22T12:16:53.953Z,4.70
2024-03-22T12:19:24.975Z,5.10
2024-03-22T12:21:56.080Z,4.50
2024-03-22T12:24:27.933Z,4.50
2024-03-22T12:26:58.787Z,4.70
2024-03-22T12:29:29.657Z,4.80
2024-03-22T12:32:02.533Z,4.20
2024-03-22T12:34:34.443Z,3.60
2024-03-22T12:37:06.237Z,4.40
2024-03-22T12:39:38.208Z,4.30
2024-03-22T12:42:10.571Z,4.80
2024-03-22T12:44:42.621Z,4.30
2024-03-22T12:47:15.175Z,4.40
2024-03-22T12:49:46.703Z,5.00
2024-03-22T12:52:18.221Z,4.70
2024-03-22T12:54:49.290Z,4.00
2024-03-22T12:57:19.989Z,4.40
2024-03-22T12:59:50.902Z,4.40
2024-03-22T13:02:21.744Z,4.80
2024-03-22T13:04:52.842Z,4.30
2024-03-22T13:07:23.913Z,4.10
2024-03-22T13:09:54.737Z,4.70
2024-03-22T13:12:26.423Z,4.20
2024-03-22T13:15:09.663Z,3.80
2024-03-22T13:17:43.756Z,9.50
2024-03-22T13:20:16.313Z,5.70
2024-03-22T13:22:47.300Z,6.80
2024-03-22T13:25:19.617Z,8.30
2024-03-22T13:27:50.447Z,4.80
2024-03-22T13:30:21.595Z,4.70
2024-03-22T13:32:52.659Z,3.90
2024-03-22T13:35:23.476Z,3.40
2024-03-22T13:37:54.571Z,5.80
2024-03-22T13:40:25.633Z,4.50
2024-03-22T13:42:57.398Z,5.20
2024-03-22T13:45:29.952Z,4.70
2024-03-22T13:48:01.802Z,5.70
2024-03-22T13:50:32.976Z,4.60
2024-03-22T13:53:04.135Z,4.30
2024-03-22T13:55:34.907Z,4.30
2024-03-22T13:58:15.076Z,4.50
2024-03-22T14:00:47.293Z,5.20
2024-03-22T14:03:18.262Z,5.10
2024-03-22T14:05:49.342Z,4.50
2024-03-22T14:08:21.070Z,4.70
2024-03-22T14:10:51.826Z,5.50
2024-03-22T14:13:22.951Z,4.50
2024-03-22T14:15:53.961Z,5.30
2024-03-22T14:18:24.970Z,4.30
2024-03-22T14:20:55.764Z,4.30
2024-03-22T14:23:26.926Z,4.10
2024-03-22T14:25:57.833Z,4.30
2024-03-22T14:28:28.861Z,4.60
2024-03-22T14:31:00.070Z,4.40
2024-03-22T14:33:31.105Z,4.60
2024-03-22T14:36:01.865Z,4.40
2024-03-22T14:38:33.205Z,4.80
2024-03-22T14:41:04.568Z,4.80
2024-03-22T14:43:36.161Z,5.50
2024-03-22T14:46:08.223Z,4.40
2024-03-22T14:48:39.109Z,5.50
2024-03-22T14:51:10.638Z,4.80
2024-03-22T14:53:42.375Z,5.80
2024-03-22T14:56:14.459Z,5.20
2024-03-22T14:58:45.521Z,4.80
2024-03-22T15:01:16.425Z,5.10
2024-03-22T15:03:47.470Z,5.50
2024-03-22T15:06:18.353Z,5.70
2024-03-22T15:08:49.458Z,3.50
2024-03-22T15:11:20.263Z,5.40
2024-03-22T15:13:51.207Z,5.60
2024-03-22T15:16:21.931Z,6.00
2024-03-22T15:18:52.785Z,5.40
2024-03-22T15:21:23.484Z,5.30
2024-03-22T15:23:54.335Z,4.70
2024-03-22T15:26:25.144Z,4.40
2024-03-22T15:28:56.007Z,4.70
2024-03-22T15:31:26.873Z,5.30
2024-03-22T15:33:58.007Z,6.80
2024-03-22T15:36:29.552Z,5.90
2024-03-22T15:39:01.385Z,5.20
2024-03-22T15:41:32.157Z,6.20
2024-03-22T15:44:03.002Z,5.70
2024-03-22T15:46:34.186Z,5.70
2024-03-22T15:49:06.012Z,6.90
2024-03-22T15:51:36.853Z,7.20
2024-03-22T15:54:08.870Z,7.40
2024-03-22T15:56:39.912Z,6.80
2024-03-22T15:59:11.057Z,5.20
2024-03-22T16:01:41.892Z,7.30
2024-03-22T16:04:12.705Z,5.40
2024-03-22T16:06:43.621Z,6.40
2024-03-22T16:09:15.484Z,5.00
2024-03-22T16:11:46.278Z,5.50
2024-03-22T16:14:17.425Z,6.40
2024-03-22T16:16:48.500Z,5.20
2024-03-22T16:19:19.427Z,6.70
2024-03-22T16:21:50.519Z,5.30
2024-03-22T16:24:21.494Z,5.70
2024-03-22T16:26:52.570Z,6.40
2024-03-22T16:29:25.322Z,4.30
2024-03-22T16:31:56.596Z,6.70
2024-03-22T16:34:27.687Z,5.70
2024-03-22T16:36:58.566Z,4.50
2024-03-22T16:39:30.614Z,4.00
2024-03-22T16:42:02.357Z,5.90
2024-03-22T16:44:34.577Z,4.80
2024-03-22T16:47:13.136Z,4.00
2024-03-22T16:49:45.592Z,5.70
2024-03-22T16:52:16.644Z,4.00
2024-03-22T16:54:47.795Z,4.80
2024-03-22T16:57:20.027Z,6.00
2024-03-22T16:59:56.120Z,4.90
2024-03-22T17:02:27.673Z,4.90
2024-03-22T17:04:58.697Z,4.50
2024-03-22T17:07:30.099Z,4.50
2024-03-22T17:10:01.123Z,5.40
2024-03-22T17:12:34.648Z,3.50
2024-03-22T17:15:09.804Z,4.00
2024-03-22T17:17:40.872Z,5.00
2024-03-22T17:20:15.324Z,5.70
2024-03-22T17:22:48.305Z,3.40
2024-03-22T17:25:19.615Z,4.50
2024-03-22T17:27:50.661Z,4.00
2024-03-22T17:30:21.837Z,4.90
2024-03-22T17:32:53.154Z,4.30
2024-03-22T17:35:24.168Z,5.20
2024-03-22T17:37:54.936Z,3.90
2024-03-22T17:40:25.820Z,5.10
2024-03-22T17:42:56.655Z,4.20
2024-03-22T17:45:27.528Z,4.20
2024-03-22T17:47:58.290Z,4.00
2024-03-22T17:50:29.242Z,4.40
2024-03-22T17:53:00.048Z,4.00
2024-03-22T17:55:30.868Z,4.60
2024-03-22T17:58:02.052Z,3.60
2024-03-22T18:00:33.504Z,4.00
2024-03-22T18:03:05.248Z,4.60
2024-03-22T18:05:36.360Z,4.20
2024-03-22T18:08:08.857Z,4.00
2024-03-22T18:10:40.750Z,4.60
2024-03-22T18:13:12.459Z,4.80
2024-03-22T18:15:43.361Z,4.20
2024-03-22T18:18:14.248Z,5.00
2024-03-22T18:20:45.466Z,4.40
2024-03-22T18:23:18.075Z,4.50
2024-03-22T18:25:49.349Z,4.10
2024-03-22T18:28:20.499Z,4.60
2024-03-22T18:30:51.688Z,4.50
2024-03-22T18:33:22.811Z,4.40
2024-03-22T18:35:54.035Z,4.60
2024-03-22T18:38:25.115Z,4.30
2024-03-22T18:40:56.177Z,4.40
2024-03-22T18:43:29.413Z,3.90
2024-03-22T18:46:00.383Z,4.40
2024-03-22T18:48:33.258Z,3.70
2024-03-22T18:51:07.310Z,4.30
2024-03-22T18:53:38.650Z,4.10
2024-03-22T18:56:10.475Z,4.50
2024-03-22T18:58:41.324Z,4.90
2024-03-22T19:01:12.483Z,3.70
2024-03-22T19:03:43.459Z,4.20
2024-03-22T19:06:14.524Z,3.80
2024-03-22T19:08:46.463Z,4.60
2024-03-22T19:11:18.825Z,4.70
2024-03-22T19:13:53.390Z,4.90
2024-03-22T19:16:27.696Z,4.70
2024-03-22T19:19:01.799Z,5.50
2024-03-22T19:21:35.929Z,5.20
2024-03-22T19:24:09.819Z,4.70
2024-03-22T19:26:42.812Z,4.60
2024-03-22T19:29:18.368Z,6.20
2024-03-22T19:31:52.472Z,7.10
2024-03-22T19:34:26.982Z,6.90
2024-03-22T19:37:02.380Z,7.90
2024-03-22T19:39:34.001Z,5.80
2024-03-22T19:42:07.106Z,6.00
2024-03-22T19:44:38.760Z,6.80
2024-03-22T19:47:11.590Z,6.70
2024-03-22T19:52:16.973Z,5.90
2024-03-22T19:54:49.093Z,6.60
2024-03-22T19:57:21.431Z,6.60
2024-03-22T19:59:53.795Z,6.50
2024-03-22T20:07:32.054Z,5.40
2024-03-22T20:10:04.409Z,6.60
2024-03-22T20:12:37.285Z,6.80
2024-03-22T20:15:11.613Z,6.60
2024-03-22T20:17:43.376Z,7.40
2024-03-22T20:20:15.666Z,6.50
2024-03-22T20:22:51.386Z,5.60
2024-03-22T20:25:27.371Z,6.50
2024-03-22T20:28:05.050Z,6.80
2024-03-22T20:30:37.101Z,6.40
2024-03-22T20:33:09.579Z,5.30
2024-03-22T20:35:43.202Z,5.00
2024-03-22T20:38:15.041Z,4.80
2024-03-22T20:40:46.491Z,4.10
2024-03-22T20:43:19.282Z,5.40
2024-03-22T20:48:29.720Z,5.40
2024-03-22T20:51:01.635Z,4.60
2024-03-22T20:53:36.140Z,5.50
2024-03-22T20:56:11.290Z,5.40
2024-03-22T20:58:46.332Z,6.50
2024-03-22T21:01:19.918Z,6.70
2024-03-22T21:03:54.446Z,6.40
2024-03-22T21:06:30.429Z,6.00
2024-03-22T21:09:02.669Z,5.70
2024-03-22T21:11:36.876Z,5.80
2024-03-22T21:14:16.894Z,5.10
2024-03-22T21:16:53.915Z,5.60
2024-03-22T21:19:32.444Z,6.00
2024-03-22T21:22:07.254Z,23.40
2024-03-22T21:24:39.828Z,36.70
2024-03-22T21:27:12.205Z,11.20
2024-03-22T21:29:45.608Z,6.60
2024-03-22T21:32:17.562Z,7.00
2024-03-22T21:34:49.658Z,6.50
2024-03-22T21:37:21.911Z,5.10
2024-03-22T21:39:55.498Z,5.70
2024-03-22T21:42:30.531Z,5.40
2024-03-22T21:47:33.232Z,6.30
2024-03-22T21:50:05.215Z,5.60
2024-03-22T21:52:39.521Z,6.60
2024-03-22T21:55:12.496Z,5.30
2024-03-22T21:57:44.158Z,5.00
2024-03-22T22:00:15.725Z,4.80
2024-03-22T22:02:47.687Z,6.00
2024-03-22T22:05:20.115Z,5.50
2024-03-22T22:07:54.259Z,6.60
2024-03-22T22:10:25.992Z,6.50
2024-03-22T22:12:57.885Z,7.10
2024-03-22T22:15:29.340Z,4.80
2024-03-22T22:18:03.327Z,6.10
2024-03-22T22:20:34.896Z,6.30
2024-03-22T22:23:07.274Z,6.20
2024-03-22T22:25:39.752Z,5.50
2024-03-22T22:28:12.500Z,7.00
2024-03-22T22:30:45.808Z,7.60
2024-03-22T22:33:17.598Z,6.30
2024-03-22T22:35:51.398Z,6.20
2024-03-22T22:38:26.210Z,6.80
2024-03-22T22:40:58.797Z,6.90
2024-03-22T22:43:30.046Z,6.70
2024-03-22T22:46:02.274Z,7.00
2024-03-22T22:48:36.331Z,6.90
2024-03-22T22:51:10.431Z,6.60
2024-03-22T22:53:41.991Z,6.70
2024-03-22T22:56:13.846Z,6.40
2024-03-22T22:58:45.373Z,7.10
2024-03-22T23:01:20.360Z,5.90
2024-03-22T23:03:54.830Z,6.30
2024-03-22T23:06:26.812Z,6.90
2024-03-22T23:08:58.788Z,5.90
2024-03-22T23:11:31.480Z,7.10
2024-03-22T23:14:02.794Z,7.60
2024-03-22T23:16:35.085Z,6.30
2024-03-22T23:19:07.000Z,7.40
2024-03-22T23:21:39.607Z,7.60
2024-03-22T23:24:11.082Z,6.60
2024-03-22T23:26:43.520Z,5.90
2024-03-22T23:29:17.091Z,6.20
2024-03-22T23:31:49.029Z,5.70
2024-03-22T23:34:21.070Z,6.90
2024-03-22T23:36:53.207Z,6.40
2024-03-22T23:39:25.106Z,7.60
2024-03-22T23:41:56.851Z,6.30
2024-03-22T23:44:28.610Z,7.00
2024-03-22T23:47:04.339Z,6.40
2024-03-22T23:49:36.217Z,5.70
2024-03-22T23:52:09.323Z,6.70
2024-03-22T23:54:45.024Z,6.10
2024-03-22T23:57:18.270Z,8.40
2024-03-22T23:59:50.197Z,8.10
